sensor_id;sensor_type;location;lat;lon;timestamp;pressure;altitude;pressure_sealevel;temperature;humidity
64876;BME280;51369;49.862;9.908;2023-02-28T00:00:02;99311.66;;;-0.40;67.03
64876;BME280;51369;49.862;9.908;2023-02-28T00:02:36;99312.53;;;-0.41;66.87
64876;BME280;51369;49.862;9.908;2023-02-28T00:05:01;99318.69;;;-0.44;67.29
64876;BME280;51369;49.862;9.908;2023-02-28T00:07:29;99313.34;;;-0.45;66.96
64876;BME280;51369;49.862;9.908;2023-02-28T00:09:55;99312.47;;;-0.46;67.34
64876;BME280;51369;49.862;9.908;2023-02-28T00:12:20;99308.00;;;-0.48;66.95
64876;BME280;51369;49.862;9.908;2023-02-28T00:14:46;99310.66;;;-0.48;67.22
64876;BME280;51369;49.862;9.908;2023-02-28T00:17:11;99304.44;;;-0.50;67.22
64876;BME280;51369;49.862;9.908;2023-02-28T00:19:36;99310.59;;;-0.51;67.49
64876;BME280;51369;49.862;9.908;2023-02-28T00:22:02;99299.97;;;-0.53;67.48
64876;BME280;51369;49.862;9.908;2023-02-28T00:24:27;99307.94;;;-0.53;67.53
64876;BME280;51369;49.862;9.908;2023-02-28T00:26:52;99310.56;;;-0.54;67.70
64876;BME280;51369;49.862;9.908;2023-02-28T00:29:18;99311.44;;;-0.55;67.87
64876;BME280;51369;49.862;9.908;2023-02-28T00:31:43;99316.72;;;-0.55;67.83
64876;BME280;51369;49.862;9.908;2023-02-28T00:34:10;99313.22;;;-0.54;67.55
64876;BME280;51369;49.862;9.908;2023-02-28T00:36:35;99307.91;;;-0.54;67.39
64876;BME280;51369;49.862;9.908;2023-02-28T00:39:03;99314.09;;;-0.54;68.01
64876;BME280;51369;49.862;9.908;2023-02-28T00:41:28;99306.13;;;-0.55;68.25
64876;BME280;51369;49.862;9.908;2023-02-28T00:43:54;99311.41;;;-0.57;68.03
64876;BME280;51369;49.862;9.908;2023-02-28T00:46:19;99305.19;;;-0.57;67.82
64876;BME280;51369;49.862;9.908;2023-02-28T00:48:44;99320.19;;;-0.61;67.94
64876;BME280;51369;49.862;9.908;2023-02-28T00:51:10;99306.91;;;-0.61;68.01
64876;BME280;51369;49.862;9.908;2023-02-28T00:53:35;99307.75;;;-0.63;67.57
64876;BME280;51369;49.862;9.908;2023-02-28T00:56:01;99310.41;;;-0.63;67.79
64876;BME280;51369;49.862;9.908;2023-02-28T00:58:26;99306.84;;;-0.66;67.49
64876;BME280;51369;49.862;9.908;2023-02-28T01:00:52;99312.16;;;-0.64;67.95
64876;BME280;51369;49.862;9.908;2023-02-28T01:03:20;99313.94;;;-0.63;67.67
64876;BME280;51369;49.862;9.908;2023-02-28T01:05:46;99302.44;;;-0.63;67.74
64876;BME280;51369;49.862;9.908;2023-02-28T01:08:13;99303.34;;;-0.63;68.18
64876;BME280;51369;49.862;9.908;2023-02-28T01:10:39;99298.91;;;-0.64;67.63
64876;BME280;51369;49.862;9.908;2023-02-28T01:13:06;99298.88;;;-0.66;67.82
64876;BME280;51369;49.862;9.908;2023-02-28T01:15:32;99309.50;;;-0.66;67.66
64876;BME280;51369;49.862;9.908;2023-02-28T01:17:58;99300.63;;;-0.68;67.78
64876;BME280;51369;49.862;9.908;2023-02-28T01:20:24;99304.13;;;-0.69;67.90
64876;BME280;51369;49.862;9.908;2023-02-28T01:22:49;99300.63;;;-0.68;67.77
64876;BME280;51369;49.862;9.908;2023-02-28T01:25:15;99307.69;;;-0.68;67.78
64876;BME280;51369;49.862;9.908;2023-02-28T01:27:40;99305.06;;;-0.67;67.74
64876;BME280;51369;49.862;9.908;2023-02-28T01:30:09;99296.19;;;-0.67;67.63
64876;BME280;51369;49.862;9.908;2023-02-28T01:32:35;99297.94;;;-0.69;67.70
64876;BME280;51369;49.862;9.908;2023-02-28T01:35:02;99288.19;;;-0.70;68.03
64876;BME280;51369;49.862;9.908;2023-02-28T01:37:27;99296.13;;;-0.72;67.49
64876;BME280;51369;49.862;9.908;2023-02-28T01:39:53;99297.88;;;-0.74;67.49
64876;BME280;51369;49.862;9.908;2023-02-28T01:42:19;99299.59;;;-0.76;67.51
64876;BME280;51369;49.862;9.908;2023-02-28T01:44:58;99290.72;;;-0.78;67.30
64876;BME280;51369;49.862;9.908;2023-02-28T01:47:28;99288.94;;;-0.79;67.57
64876;BME280;51369;49.862;9.908;2023-02-28T01:49:56;99277.38;;;-0.82;67.95
64876;BME280;51369;49.862;9.908;2023-02-28T01:52:23;99286.22;;;-0.82;67.57
64876;BME280;51369;49.862;9.908;2023-02-28T01:54:55;99283.53;;;-0.85;67.76
64876;BME280;51369;49.862;9.908;2023-02-28T01:57:26;99275.56;;;-0.86;67.55
64876;BME280;51369;49.862;9.908;2023-02-28T01:59:58;99267.56;;;-0.88;68.11
64876;BME280;51369;49.862;9.908;2023-02-28T02:02:26;99267.56;;;-0.88;68.18
64876;BME280;51369;49.862;9.908;2023-02-28T02:05:04;99268.41;;;-0.90;68.02
64876;BME280;51369;49.862;9.908;2023-02-28T02:07:34;99271.94;;;-0.91;68.24
64876;BME280;51369;49.862;9.908;2023-02-28T02:10:21;99262.19;;;-0.92;67.71
64876;BME280;51369;49.862;9.908;2023-02-28T02:13:10;99263.06;;;-0.93;67.77
64876;BME280;51369;49.862;9.908;2023-02-28T02:16:22;99260.38;;;-0.95;68.04
64876;BME280;51369;49.862;9.908;2023-02-28T02:18:53;99263.91;;;-0.96;67.67
64876;BME280;51369;49.862;9.908;2023-02-28T02:24:41;99265.56;;;-1.01;68.04
64876;BME280;51369;49.862;9.908;2023-02-28T02:27:20;99258.50;;;-1.02;67.94
64876;BME280;51369;49.862;9.908;2023-02-28T02:35:12;99246.00;;;-1.09;68.10
64876;BME280;51369;49.862;9.908;2023-02-28T02:37:48;99249.50;;;-1.10;68.10
64876;BME280;51369;49.862;9.908;2023-02-28T02:40:22;99247.75;;;-1.10;68.18
64876;BME280;51369;49.862;9.908;2023-02-28T02:42:55;99253.09;;;-1.08;68.25
64876;BME280;51369;49.862;9.908;2023-02-28T02:48:01;99260.03;;;-1.15;68.54
64876;BME280;51369;49.862;9.908;2023-02-28T02:50:39;99255.56;;;-1.17;68.24
64876;BME280;51369;49.862;9.908;2023-02-28T02:53:09;99260.88;;;-1.17;67.93
64876;BME280;51369;49.862;9.908;2023-02-28T02:55:39;99254.66;;;-1.19;67.98
64876;BME280;51369;49.862;9.908;2023-02-28T02:58:10;99256.38;;;-1.21;68.34
64876;BME280;51369;49.862;9.908;2023-02-28T03:00:42;99252.81;;;-1.23;68.47
64876;BME280;51369;49.862;9.908;2023-02-28T03:03:10;99262.50;;;-1.25;68.49
64876;BME280;51369;49.862;9.908;2023-02-28T03:05:44;99254.47;;;-1.30;68.45
64876;BME280;51369;49.862;9.908;2023-02-28T03:08:11;99260.63;;;-1.31;68.78
64876;BME280;51369;49.862;9.908;2023-02-28T03:10:42;99260.56;;;-1.34;68.42
64876;BME280;51369;49.862;9.908;2023-02-28T03:18:40;99252.56;;;-1.37;68.72
64876;BME280;51369;49.862;9.908;2023-02-28T03:23:50;99258.75;;;-1.37;69.09
64876;BME280;51369;49.862;9.908;2023-02-28T03:26:23;99252.56;;;-1.37;68.86
64876;BME280;51369;49.862;9.908;2023-02-28T03:31:41;99255.16;;;-1.40;69.12
64876;BME280;51369;49.862;9.908;2023-02-28T03:34:17;99262.19;;;-1.41;69.13
64876;BME280;51369;49.862;9.908;2023-02-28T03:36:48;99258.66;;;-1.41;68.82
64876;BME280;51369;49.862;9.908;2023-02-28T03:39:24;99256.00;;;-1.43;69.19
64876;BME280;51369;49.862;9.908;2023-02-28T03:41:56;99265.69;;;-1.43;68.76
64876;BME280;51369;49.862;9.908;2023-02-28T03:45:08;99262.16;;;-1.44;69.13
64876;BME280;51369;49.862;9.908;2023-02-28T03:47:41;99272.78;;;-1.42;68.77
64876;BME280;51369;49.862;9.908;2023-02-28T03:50:37;99269.19;;;-1.44;69.28
64876;BME280;51369;49.862;9.908;2023-02-28T03:53:12;99267.41;;;-1.45;69.40
64876;BME280;51369;49.862;9.908;2023-02-28T03:55:52;99270.03;;;-1.47;69.13
64876;BME280;51369;49.862;9.908;2023-02-28T03:58:31;99269.13;;;-1.49;69.23
64876;BME280;51369;49.862;9.908;2023-02-28T04:01:08;99265.59;;;-1.48;69.58
64876;BME280;51369;49.862;9.908;2023-02-28T04:03:36;99260.34;;;-1.46;69.54
64876;BME280;51369;49.862;9.908;2023-02-28T04:06:02;99262.97;;;-1.46;69.43
64876;BME280;51369;49.862;9.908;2023-02-28T04:08:27;99261.22;;;-1.46;69.86
64876;BME280;51369;49.862;9.908;2023-02-28T04:11:04;99276.22;;;-1.46;69.33
64876;BME280;51369;49.862;9.908;2023-02-28T04:13:31;99265.66;;;-1.45;69.40
64876;BME280;51369;49.862;9.908;2023-02-28T04:15:57;99275.38;;;-1.44;69.12
64876;BME280;51369;49.862;9.908;2023-02-28T04:18:23;99270.09;;;-1.44;68.90
64876;BME280;51369;49.862;9.908;2023-02-28T04:20:48;99271.88;;;-1.43;68.93
64876;BME280;51369;49.862;9.908;2023-02-28T04:23:14;99268.38;;;-1.42;68.99
64876;BME280;51369;49.862;9.908;2023-02-28T04:25:40;99271.88;;;-1.43;68.96
64876;BME280;51369;49.862;9.908;2023-02-28T04:28:06;99266.59;;;-1.43;69.00
64876;BME280;51369;49.862;9.908;2023-02-28T04:30:31;99268.38;;;-1.42;68.92
64876;BME280;51369;49.862;9.908;2023-02-28T04:32:58;99271.91;;;-1.41;69.33
64876;BME280;51369;49.862;9.908;2023-02-28T04:35:23;99260.44;;;-1.40;68.95
64876;BME280;51369;49.862;9.908;2023-02-28T04:37:49;99270.19;;;-1.39;68.67
64876;BME280;51369;49.862;9.908;2023-02-28T04:40:14;99271.06;;;-1.39;68.93
64876;BME280;51369;49.862;9.908;2023-02-28T04:42:39;99264.03;;;-1.37;68.60
64876;BME280;51369;49.862;9.908;2023-02-28T04:45:05;99264.03;;;-1.37;68.44
64876;BME280;51369;49.862;9.908;2023-02-28T04:47:31;99270.25;;;-1.35;68.42
64876;BME280;51369;49.862;9.908;2023-02-28T04:49:56;99269.41;;;-1.34;68.52
64876;BME280;51369;49.862;9.908;2023-02-28T04:52:22;99266.78;;;-1.32;68.72
64876;BME280;51369;49.862;9.908;2023-02-28T04:54:47;99264.13;;;-1.32;68.17
64876;BME280;51369;49.862;9.908;2023-02-28T04:57:12;99269.63;;;-1.21;68.49
64876;BME280;51369;49.862;9.908;2023-02-28T04:59:38;99263.63;;;-1.11;68.23
64876;BME280;51369;49.862;9.908;2023-02-28T05:02:04;99269.00;;;-1.07;67.68
64876;BME280;51369;49.862;9.908;2023-02-28T05:04:35;99273.47;;;-1.04;67.95
64876;BME280;51369;49.862;9.908;2023-02-28T05:07:01;99272.59;;;-1.03;67.56
64876;BME280;51369;49.862;9.908;2023-02-28T05:09:27;99270.81;;;-1.04;67.53
64876;BME280;51369;49.862;9.908;2023-02-28T05:11:53;99269.03;;;-1.05;67.44
64876;BME280;51369;49.862;9.908;2023-02-28T05:14:19;99274.34;;;-1.05;67.81
64876;BME280;51369;49.862;9.908;2023-02-28T05:16:44;99267.25;;;-1.06;67.66
64876;BME280;51369;49.862;9.908;2023-02-28T05:19:09;99274.28;;;-1.08;67.06
64876;BME280;51369;49.862;9.908;2023-02-28T05:21:38;99268.09;;;-1.09;66.96
64876;BME280;51369;49.862;9.908;2023-02-28T05:24:06;99275.19;;;-1.06;67.31
64876;BME280;51369;49.862;9.908;2023-02-28T05:26:38;99275.22;;;-1.05;67.14
64876;BME280;51369;49.862;9.908;2023-02-28T05:29:04;99281.44;;;-1.03;67.02
64876;BME280;51369;49.862;9.908;2023-02-28T05:31:30;99285.00;;;-1.02;66.94
64876;BME280;51369;49.862;9.908;2023-02-28T05:33:56;99286.78;;;-1.01;67.07
64876;BME280;51369;49.862;9.908;2023-02-28T05:36:21;99286.78;;;-1.01;66.34
64876;BME280;51369;49.862;9.908;2023-02-28T05:38:48;99288.56;;;-1.00;66.26
64876;BME280;51369;49.862;9.908;2023-02-28T05:41:14;99291.22;;;-1.00;66.61
64876;BME280;51369;49.862;9.908;2023-02-28T05:43:40;99284.09;;;-1.03;66.25
64876;BME280;51369;49.862;9.908;2023-02-28T05:46:07;99289.38;;;-1.04;66.57
64876;BME280;51369;49.862;9.908;2023-02-28T05:48:34;99299.06;;;-1.06;66.58
64876;BME280;51369;49.862;9.908;2023-02-28T05:51:00;99294.66;;;-1.06;66.19
64876;BME280;51369;49.862;9.908;2023-02-28T05:53:26;99290.22;;;-1.07;66.19
64876;BME280;51369;49.862;9.908;2023-02-28T05:55:52;99298.19;;;-1.05;66.25
64876;BME280;51369;49.862;9.908;2023-02-28T05:58:17;99298.19;;;-1.05;66.54
64876;BME280;51369;49.862;9.908;2023-02-28T06:00:42;99292.91;;;-1.04;66.17
64876;BME280;51369;49.862;9.908;2023-02-28T06:03:08;99288.50;;;-1.03;65.83
64876;BME280;51369;49.862;9.908;2023-02-28T06:05:33;99295.59;;;-1.02;66.23
64876;BME280;51369;49.862;9.908;2023-02-28T06:07:58;99299.13;;;-1.02;65.37
64876;BME280;51369;49.862;9.908;2023-02-28T06:10:24;99296.50;;;-1.02;65.67
64876;BME280;51369;49.862;9.908;2023-02-28T06:12:49;99308.91;;;-0.99;65.55
64876;BME280;51369;49.862;9.908;2023-02-28T06:15:16;99308.91;;;-0.99;65.26
64876;BME280;51369;49.862;9.908;2023-02-28T06:17:43;99309.81;;;-0.97;65.44
64876;BME280;51369;49.862;9.908;2023-02-28T06:20:10;99310.72;;;-0.96;65.31
64876;BME280;51369;49.862;9.908;2023-02-28T06:22:36;99314.25;;;-0.96;65.64
64876;BME280;51369;49.862;9.908;2023-02-28T06:25:03;99313.41;;;-0.95;65.55
64876;BME280;51369;49.862;9.908;2023-02-28T06:27:30;99313.44;;;-0.92;65.32
64876;BME280;51369;49.862;9.908;2023-02-28T06:29:56;99309.94;;;-0.91;65.32
64876;BME280;51369;49.862;9.908;2023-02-28T06:32:22;99315.22;;;-0.91;65.04
64876;BME280;51369;49.862;9.908;2023-02-28T06:34:47;99322.31;;;-0.90;64.88
64876;BME280;51369;49.862;9.908;2023-02-28T06:37:12;99330.28;;;-0.90;65.34
64876;BME280;51369;49.862;9.908;2023-02-28T06:39:38;99332.03;;;-0.90;64.98
64876;BME280;51369;49.862;9.908;2023-02-28T06:42:03;99331.13;;;-0.91;65.45
64876;BME280;51369;49.862;9.908;2023-02-28T06:44:28;99341.75;;;-0.91;65.35
64876;BME280;51369;49.862;9.908;2023-02-28T06:47:04;99338.75;;;-1.09;65.34
64876;BME280;51369;49.862;9.908;2023-02-28T06:49:32;99338.69;;;-1.12;65.52
64876;BME280;51369;49.862;9.908;2023-02-28T06:51:57;99333.41;;;-1.12;65.87
64876;BME280;51369;49.862;9.908;2023-02-28T06:54:23;99337.81;;;-1.11;65.40
64876;BME280;51369;49.862;9.908;2023-02-28T06:56:48;99350.22;;;-1.10;65.37
64876;BME280;51369;49.862;9.908;2023-02-28T06:59:14;99340.50;;;-1.10;65.81
64876;BME280;51369;49.862;9.908;2023-02-28T07:01:40;99353.81;;;-1.07;65.74
64876;BME280;51369;49.862;9.908;2023-02-28T07:04:05;99352.09;;;-1.05;66.12
64876;BME280;51369;49.862;9.908;2023-02-28T07:06:31;99345.94;;;-1.02;65.97
64876;BME280;51369;49.862;9.908;2023-02-28T07:08:57;99353.09;;;-0.98;65.40
64876;BME280;51369;49.862;9.908;2023-02-28T07:11:24;99353.13;;;-0.96;66.00
64876;BME280;51369;49.862;9.908;2023-02-28T07:13:54;99360.28;;;-0.92;65.65
64876;BME280;51369;49.862;9.908;2023-02-28T07:16:20;99349.75;;;-0.88;65.76
64876;BME280;51369;49.862;9.908;2023-02-28T07:18:47;99350.69;;;-0.84;65.57
64876;BME280;51369;49.862;9.908;2023-02-28T07:21:12;99351.69;;;-0.79;65.56
64876;BME280;51369;49.862;9.908;2023-02-28T07:23:38;99345.59;;;-0.74;65.36
64876;BME280;51369;49.862;9.908;2023-02-28T07:26:11;99351.88;;;-0.69;65.73
64876;BME280;51369;49.862;9.908;2023-02-28T07:28:40;99346.66;;;-0.62;65.57
64876;BME280;51369;49.862;9.908;2023-02-28T07:31:06;99338.78;;;-0.58;65.59
64876;BME280;51369;49.862;9.908;2023-02-28T07:33:32;99353.88;;;-0.54;65.36
64876;BME280;51369;49.862;9.908;2023-02-28T07:36:10;99353.09;;;-0.48;65.33
64876;BME280;51369;49.862;9.908;2023-02-28T07:38:41;99339.03;;;-0.43;65.64
64876;BME280;51369;49.862;9.908;2023-02-28T07:41:07;99347.97;;;-0.38;65.22
64876;BME280;51369;49.862;9.908;2023-02-28T07:43:33;99357.78;;;-0.32;64.96
64876;BME280;51369;49.862;9.908;2023-02-28T07:46:10;99346.34;;;-0.28;65.89
64876;BME280;51369;49.862;9.908;2023-02-28T07:48:36;99349.09;;;-0.23;64.85
64876;BME280;51369;49.862;9.908;2023-02-28T07:51:02;99346.47;;;-0.20;65.54
64876;BME280;51369;49.862;9.908;2023-02-28T07:53:28;99350.06;;;-0.17;65.17
64876;BME280;51369;49.862;9.908;2023-02-28T07:55:55;99348.34;;;-0.15;65.60
64876;BME280;51369;49.862;9.908;2023-02-28T07:58:21;99354.59;;;-0.11;64.92
64876;BME280;51369;49.862;9.908;2023-02-28T08:00:47;99355.53;;;-0.08;65.40
64876;BME280;51369;49.862;9.908;2023-02-28T08:03:12;99349.38;;;-0.04;65.19
64876;BME280;51369;49.862;9.908;2023-02-28T08:05:39;99352.97;;;0.02;65.27
64876;BME280;51369;49.862;9.908;2023-02-28T08:08:06;99357.47;;;0.07;64.91
64876;BME280;51369;49.862;9.908;2023-02-28T08:10:31;99360.22;;;0.13;64.89
64876;BME280;51369;49.862;9.908;2023-02-28T08:12:57;99350.59;;;0.20;65.44
64876;BME280;51369;49.862;9.908;2023-02-28T08:15:22;99345.34;;;0.26;64.82
64876;BME280;51369;49.862;9.908;2023-02-28T08:17:48;99358.75;;;0.33;64.82
64876;BME280;51369;49.862;9.908;2023-02-28T08:20:13;99356.16;;;0.40;64.50
64876;BME280;51369;49.862;9.908;2023-02-28T08:22:38;99362.44;;;0.46;65.14
64876;BME280;51369;49.862;9.908;2023-02-28T08:25:04;99358.13;;;0.53;64.88
64876;BME280;51369;49.862;9.908;2023-02-28T08:27:32;99354.66;;;0.60;64.49
64876;BME280;51369;49.862;9.908;2023-02-28T08:29:57;99353.00;;;0.70;63.90
64876;BME280;51369;49.862;9.908;2023-02-28T08:32:22;99361.03;;;0.74;64.67
64876;BME280;51369;49.862;9.908;2023-02-28T08:34:48;99356.69;;;0.81;64.77
64876;BME280;51369;49.862;9.908;2023-02-28T08:37:14;99349.66;;;0.86;64.26
64876;BME280;51369;49.862;9.908;2023-02-28T08:39:39;99352.38;;;0.92;63.90
64876;BME280;51369;49.862;9.908;2023-02-28T08:42:05;99352.47;;;1.00;64.35
64876;BME280;51369;49.862;9.908;2023-02-28T08:44:30;99360.53;;;1.07;64.32
64876;BME280;51369;49.862;9.908;2023-02-28T08:46:56;99342.00;;;1.15;63.31
64876;BME280;51369;49.862;9.908;2023-02-28T08:49:21;99341.19;;;1.23;64.02
64876;BME280;51369;49.862;9.908;2023-02-28T08:51:46;99351.94;;;1.33;63.37
64876;BME280;51369;49.862;9.908;2023-02-28T08:54:12;99360.88;;;1.41;63.84
64876;BME280;51369;49.862;9.908;2023-02-28T08:56:38;99361.81;;;1.46;62.97
64876;BME280;51369;49.862;9.908;2023-02-28T08:59:03;99357.44;;;1.54;63.72
64876;BME280;51369;49.862;9.908;2023-02-28T09:01:29;99357.50;;;1.61;62.49
64876;BME280;51369;49.862;9.908;2023-02-28T09:03:57;99354.00;;;1.67;62.89
64876;BME280;51369;49.862;9.908;2023-02-28T09:06:25;99347.81;;;1.74;62.39
64876;BME280;51369;49.862;9.908;2023-02-28T09:08:51;99347.88;;;1.80;61.53
64876;BME280;51369;49.862;9.908;2023-02-28T09:11:17;99350.59;;;1.86;61.93
64876;BME280;51369;49.862;9.908;2023-02-28T09:13:44;99353.28;;;1.92;61.88
64876;BME280;51369;49.862;9.908;2023-02-28T09:16:12;99348.00;;;1.95;61.61
64876;BME280;51369;49.862;9.908;2023-02-28T09:18:39;99353.34;;;2.00;61.83
64876;BME280;51369;49.862;9.908;2023-02-28T09:21:12;99342.72;;;2.03;61.88
64876;BME280;51369;49.862;9.908;2023-02-28T09:23:45;99348.09;;;2.09;61.38
64876;BME280;51369;49.862;9.908;2023-02-28T09:26:22;99347.25;;;2.16;61.02
64876;BME280;51369;49.862;9.908;2023-02-28T09:28:49;99350.81;;;2.21;61.13
64876;BME280;51369;49.862;9.908;2023-02-28T09:31:17;99346.41;;;2.25;61.22
64876;BME280;51369;49.862;9.908;2023-02-28T09:33:46;99347.31;;;2.30;62.01
64876;BME280;51369;49.862;9.908;2023-02-28T09:36:12;99354.47;;;2.34;61.21
64876;BME280;51369;49.862;9.908;2023-02-28T09:38:37;99347.38;;;2.39;61.94
64876;BME280;51369;49.862;9.908;2023-02-28T09:41:11;99356.28;;;2.44;61.65
64876;BME280;51369;49.862;9.908;2023-02-28T09:43:41;99352.78;;;2.51;60.63
64876;BME280;51369;49.862;9.908;2023-02-28T09:46:21;99354.59;;;2.58;60.70
64876;BME280;51369;49.862;9.908;2023-02-28T09:48:50;99353.75;;;2.69;60.05
64876;BME280;51369;49.862;9.908;2023-02-28T09:53:48;99360.03;;;2.86;60.73
64876;BME280;51369;49.862;9.908;2023-02-28T09:57:30;99361.84;;;2.93;58.42
64876;BME280;51369;49.862;9.908;2023-02-28T10:05:27;99361.94;;;3.23;58.91
64876;BME280;51369;49.862;9.908;2023-02-28T10:08:13;99369.94;;;3.26;60.17
64876;BME280;51369;49.862;9.908;2023-02-28T10:10:47;99363.72;;;3.34;60.19
64876;BME280;51369;49.862;9.908;2023-02-28T10:15:53;99366.41;;;3.50;58.95
64876;BME280;51369;49.862;9.908;2023-02-28T10:18:24;99366.41;;;3.63;59.52
64876;BME280;51369;49.862;9.908;2023-02-28T10:20:51;99361.97;;;3.71;59.28
64876;BME280;51369;49.862;9.908;2023-02-28T10:23:25;99365.53;;;3.79;60.73
64876;BME280;51369;49.862;9.908;2023-02-28T10:26:14;99359.28;;;3.84;60.30
64876;BME280;51369;49.862;9.908;2023-02-28T10:28:41;99358.41;;;3.85;60.88
64876;BME280;51369;49.862;9.908;2023-02-28T10:31:11;99356.63;;;3.83;58.48
64876;BME280;51369;49.862;9.908;2023-02-28T10:33:39;99358.41;;;3.88;59.05
64876;BME280;51369;49.862;9.908;2023-02-28T10:36:05;99353.06;;;3.93;59.95
64876;BME280;51369;49.862;9.908;2023-02-28T10:38:35;99356.63;;;3.98;59.08
64876;BME280;51369;49.862;9.908;2023-02-28T10:43:35;99349.47;;;4.12;59.43
64876;BME280;51369;49.862;9.908;2023-02-28T10:46:02;99354.81;;;4.20;59.54
64876;BME280;51369;49.862;9.908;2023-02-28T10:48:37;99351.25;;;4.22;58.37
64876;BME280;51369;49.862;9.908;2023-02-28T10:51:05;99350.34;;;4.27;59.52
64876;BME280;51369;49.862;9.908;2023-02-28T10:53:52;99360.16;;;4.24;57.96
64876;BME280;51369;49.862;9.908;2023-02-28T10:56:22;99353.00;;;4.30;56.09
64876;BME280;51369;49.862;9.908;2023-02-28T11:01:46;99349.41;;;4.43;56.40
64876;BME280;51369;49.862;9.908;2023-02-28T11:04:32;99348.44;;;4.71;57.89
64876;BME280;51369;49.862;9.908;2023-02-28T11:07:00;99352.84;;;4.84;58.34
64876;BME280;51369;49.862;9.908;2023-02-28T11:09:34;99354.59;;;4.88;56.90
64876;BME280;51369;49.862;9.908;2023-02-28T11:12:01;99350.16;;;4.87;56.76
64876;BME280;51369;49.862;9.908;2023-02-28T11:14:29;99357.28;;;4.85;56.52
64876;BME280;51369;49.862;9.908;2023-02-28T11:17:01;99351.94;;;4.85;54.38
64876;BME280;51369;49.862;9.908;2023-02-28T11:19:38;99351.94;;;4.88;55.69
64876;BME280;51369;49.862;9.908;2023-02-28T11:22:05;99358.19;;;4.87;54.97
64876;BME280;51369;49.862;9.908;2023-02-28T11:24:44;99352.91;;;4.65;55.03
64876;BME280;51369;49.862;9.908;2023-02-28T11:27:46;99345.78;;;4.64;56.78
64876;BME280;51369;49.862;9.908;2023-02-28T11:32:50;99348.47;;;4.57;56.73
64876;BME280;51369;49.862;9.908;2023-02-28T11:35:37;99354.75;;;4.44;57.22
64876;BME280;51369;49.862;9.908;2023-02-28T11:38:09;99359.25;;;4.33;55.87
64876;BME280;51369;49.862;9.908;2023-02-28T11:46:30;99347.72;;;3.98;59.33
64876;BME280;51369;49.862;9.908;2023-02-28T11:52:13;99349.50;;;3.83;57.87
64876;BME280;51369;49.862;9.908;2023-02-28T11:55:12;99344.16;;;3.86;58.26
64876;BME280;51369;49.862;9.908;2023-02-28T12:05:40;99334.22;;;4.60;58.54
64876;BME280;51369;49.862;9.908;2023-02-28T12:13:26;99322.38;;;5.11;58.18
64876;BME280;51369;49.862;9.908;2023-02-28T12:26:43;99316.63;;;5.63;54.12
64876;BME280;51369;49.862;9.908;2023-02-28T12:29:23;99307.59;;;5.76;53.61
64876;BME280;51369;49.862;9.908;2023-02-28T12:32:11;99316.41;;;5.87;53.40
64876;BME280;51369;49.862;9.908;2023-02-28T12:34:42;99313.69;;;5.98;54.69
64876;BME280;51369;49.862;9.908;2023-02-28T12:37:25;99314.53;;;6.02;53.86
64876;BME280;51369;49.862;9.908;2023-02-28T12:39:59;99308.22;;;6.09;55.31
64876;BME280;51369;49.862;9.908;2023-02-28T12:42:33;99312.66;;;6.10;53.73
64876;BME280;51369;49.862;9.908;2023-02-28T12:45:11;99310.88;;;6.10;54.17
64876;BME280;51369;49.862;9.908;2023-02-28T12:47:42;99302.84;;;6.10;55.08
64876;BME280;51369;49.862;9.908;2023-02-28T12:50:11;99310.91;;;6.07;55.52
64876;BME280;51369;49.862;9.908;2023-02-28T12:53:06;99310.94;;;6.06;54.97
64876;BME280;51369;49.862;9.908;2023-02-28T12:56:16;99300.16;;;6.09;54.20
64876;BME280;51369;49.862;9.908;2023-02-28T12:58:48;99301.91;;;6.13;54.70
64876;BME280;51369;49.862;9.908;2023-02-28T13:09:23;99300.16;;;6.09;55.67
64876;BME280;51369;49.862;9.908;2023-02-28T13:11:51;99300.16;;;6.09;56.73
64876;BME280;51369;49.862;9.908;2023-02-28T13:19:32;99294.84;;;6.06;55.26
64876;BME280;51369;49.862;9.908;2023-02-28T13:21:59;99297.53;;;6.06;56.52
64876;BME280;51369;49.862;9.908;2023-02-28T13:29:39;99293.06;;;6.05;53.57
64876;BME280;51369;49.862;9.908;2023-02-28T13:34:39;99295.69;;;6.09;54.96
64876;BME280;51369;49.862;9.908;2023-02-28T13:47:39;99289.28;;;6.24;51.97
64876;BME280;51369;49.862;9.908;2023-02-28T13:50:22;99289.22;;;6.30;52.78
64876;BME280;51369;49.862;9.908;2023-02-28T13:56:09;99287.34;;;6.38;54.55
64876;BME280;51369;49.862;9.908;2023-02-28T14:04:02;99273.03;;;6.38;52.29
64876;BME280;51369;49.862;9.908;2023-02-28T14:06:36;99263.19;;;6.40;54.91
64876;BME280;51369;49.862;9.908;2023-02-28T14:11:44;99274.03;;;6.31;53.44
64876;BME280;51369;49.862;9.908;2023-02-28T14:17:08;99268.59;;;6.35;52.95
64876;BME280;51369;49.862;9.908;2023-02-28T14:19:39;99263.19;;;6.38;53.29
64876;BME280;51369;49.862;9.908;2023-02-28T14:27:37;99255.91;;;6.51;52.78
64876;BME280;51369;49.862;9.908;2023-02-28T14:32:46;99264.84;;;6.51;53.51
64876;BME280;51369;49.862;9.908;2023-02-28T14:35:49;99260.38;;;6.50;53.65
64876;BME280;51369;49.862;9.908;2023-02-28T14:38:45;99268.41;;;6.52;51.74
64876;BME280;51369;49.862;9.908;2023-02-28T14:41:38;99252.28;;;6.53;52.48
64876;BME280;51369;49.862;9.908;2023-02-28T14:44:20;99256.78;;;6.51;52.13
64876;BME280;51369;49.862;9.908;2023-02-28T14:46:57;99246.06;;;6.50;51.48
64876;BME280;51369;49.862;9.908;2023-02-28T14:54:31;99246.66;;;6.73;53.42
64876;BME280;51369;49.862;9.908;2023-02-28T14:56:57;99245.78;;;6.73;54.60
64876;BME280;51369;49.862;9.908;2023-02-28T14:59:28;99244.91;;;6.71;53.01
64876;BME280;51369;49.862;9.908;2023-02-28T15:02:24;99244.03;;;6.69;52.63
64876;BME280;51369;49.862;9.908;2023-02-28T15:05:00;99245.78;;;6.71;51.82
64876;BME280;51369;49.862;9.908;2023-02-28T15:07:26;99246.66;;;6.73;50.76
64876;BME280;51369;49.862;9.908;2023-02-28T15:10:09;99246.63;;;6.76;50.57
64876;BME280;51369;49.862;9.908;2023-02-28T15:12:36;99242.00;;;6.86;50.93
64876;BME280;51369;49.862;9.908;2023-02-28T15:15:02;99243.72;;;6.92;50.17
64876;BME280;51369;49.862;9.908;2023-02-28T15:17:28;99241.81;;;6.97;50.01
64876;BME280;51369;49.862;9.908;2023-02-28T15:19:54;99242.66;;;7.00;50.32
64876;BME280;51369;49.862;9.908;2023-02-28T15:22:35;99239.97;;;7.00;50.10
64876;BME280;51369;49.862;9.908;2023-02-28T15:25:02;99232.22;;;6.83;49.44
64876;BME280;51369;49.862;9.908;2023-02-28T15:27:32;99235.94;;;6.73;51.02
64876;BME280;51369;49.862;9.908;2023-02-28T15:30:00;99240.56;;;6.62;50.35
64876;BME280;51369;49.862;9.908;2023-02-28T15:32:31;99236.19;;;6.53;51.11